Villa Verona, California
Current Conditions -  °F | °C
As of 11:53 AM on Sunday 23 Nov 2014 (Local Time) from KOVE Reporting Station
Clear Clear  
Wind Chill: 54°   Ceiling: Unl
Heat Index: 54°   Visibility: 10mi
Dew Point: 43°   Wind: 10mph
Humidity: 66%   Direction: 290°WNW
Pressure: 30.3"   Gusts: NA
Location:  39.5324°N, 121.648°W
Report Text: KOVE 231953Z AUTO 29009KT 10SM CLR 12/06 A3030 RMK AO2 SLP264 T01220061
Loading
Personal Weather Stations






























Interactive Weather Map New forecast layout! Learn more

10-Day Weather Forecast

Advertisements
Track Severe Weather on mobile